Amber Beverly — VRHK5 — position and weather

sailwx.info

Track history (hours):
 
Tides and Currents Weather Stations Pressure Air Temp Water Temp Dewpoint Dewpoint Depression Visibility Wind Speed Wind Dir Waves Ship Positions

Amber Beverly

Last reported at 2016-Jun-28 20:08 UTC. Time now 2016-Jun-29 03:51 UTC.
Position N 34°19' E 021°20'.

Length 190 m; draft 7.6 m.

Type: Cargo ship. MMSI: 477317100.

Date/timePositionNaut miles runAvg speedWind from/ knotsBaromVisibWave heightAir tempDewpointWater temp
2016-Jun-28 20:08N 34°19' E 021°20'1112.7
2016-Jun-28 19:14N 34°16' E 021°33'913.0
2016-Jun-28 18:33N 34°14' E 021°44'51312.7
2016-Jun-27 02:18N 31°51' E 031°31'1112.8
2016-Jun-27 01:27N 31°45' E 031°42'1112.1
2016-Jun-27 00:33N 31°35' E 031°47'8 7.7
2016-Jun-26 23:30N 31°27' E 031°46'0 0.0
2016-Jun-26 19:27N 31°27' E 031°46'0 0.0
2016-Jun-26 16:15N 31°27' E 031°46'0 0.0
2016-Jun-26 15:33N 31°27' E 031°46'0 0.0
2016-Jun-26 14:03N 31°27' E 031°46'0 0.0
2016-Jun-26 13:30N 31°27' E 031°46'0 0.0
2016-Jun-26 04:12N 31°27' E 031°46'0 0.0
2016-Jun-25 23:15N 31°27' E 031°46'0 0.0
2016-Jun-25 11:27N 31°27' E 031°46'0 0.0
2016-Jun-25 10:24N 31°27' E 031°46'0 0.0
2016-Jun-24 22:33N 31°27' E 031°46'0 0.0
2016-Jun-24 21:33N 31°27' E 031°46'0 0.0
2016-Jun-24 20:33N 31°27' E 031°46'0 0.0
2016-Jun-24 09:09N 31°27' E 031°46'0 0.0
2016-Jun-23 13:15N 31°27' E 031°46'0 0.0
2016-Jun-23 12:30N 31°27' E 031°46'0 0.0
2016-Jun-23 11:33N 31°27' E 031°46'0 0.0
2016-Jun-23 10:33N 31°27' E 031°46'0 0.0
2016-Jun-23 09:33N 31°27' E 031°46'0 0.0
2016-Jun-23 05:06N 31°27' E 031°46'0 0.0
2016-Jun-22 13:33N 31°27' E 031°46'0 0.0
2016-Jun-22 12:33N 31°27' E 031°46'5 5.2
2016-Jun-22 11:33N 31°33' E 031°46'3 3.3
2016-Jun-22 10:33N 31°36' E 031°47'4 4.1
2016-Jun-22 09:33N 31°38' E 031°43'0 0.2
2016-Jun-22 08:24N 31°39' E 031°43'0 0.0
2016-Jun-22 07:33N 31°39' E 031°43'0 0.0
2016-Jun-22 06:33N 31°39' E 031°43'0 0.0
2016-Jun-22 05:33N 31°39' E 031°43'0 0.0
2016-Jun-22 04:33N 31°39' E 031°43'0 0.0
2016-Jun-22 02:27N 31°39' E 031°43'0 0.0
2016-Jun-21 21:33N 31°39' E 031°43'0 0.0
2016-Jun-21 20:33N 31°39' E 031°43'0 0.0
2016-Jun-21 19:31N 31°39' E 031°43'0 0.0
2016-Jun-21 18:31N 31°39' E 031°43'0 0.0
2016-Jun-21 17:31N 31°38' E 031°43'0 0.0
2016-Jun-21 16:31N 31°38' E 031°43'0 0.0
2016-Jun-21 15:31N 31°38' E 031°43'0 0.0
2016-Jun-21 14:31N 31°38' E 031°43'0 0.0
2016-Jun-21 13:31N 31°38' E 031°43'0 0.0
2016-Jun-21 12:31N 31°38' E 031°43'0 0.0
2016-Jun-21 11:32N 31°38' E 031°43'0 0.0
2016-Jun-21 10:32N 31°38' E 031°43'0 0.0
2016-Jun-21 09:33N 31°38' E 031°43'0 0.0
2016-Jun-21 08:33N 31°38' E 031°43'0 0.0
2016-Jun-21 07:33N 31°38' E 031°43'0 0.0
2016-Jun-21 06:33N 31°38' E 031°43'0 0.0
2016-Jun-20 23:21N 31°39' E 031°43'0 0.0
2016-Jun-20 21:33N 31°39' E 031°43'0 0.0
2016-Jun-20 20:33N 31°38' E 031°43'0 0.0
2016-Jun-20 19:33N 31°38' E 031°43'0 0.0
2016-Jun-20 18:33N 31°38' E 031°43'0 0.0
2016-Jun-20 17:33N 31°38' E 031°43'0 0.0
2016-Jun-20 16:33N 31°38' E 031°43'0 0.0
2016-Jun-20 13:18N 31°38' E 031°43'0 0.0
2016-Jun-20 09:33N 31°38' E 031°43'0 0.0
2016-Jun-20 08:33N 31°38' E 031°43'0 0.0
2016-Jun-19 10:18N 31°38' E 031°43'0 0.0
2016-Jun-19 09:33N 31°38' E 031°43'0 0.0
2016-Jun-19 08:31N 31°38' E 031°43'0 0.0
2016-Jun-18 22:31N 31°38' E 031°43'0 0.0
2016-Jun-18 21:28N 31°38' E 031°43'0 0.0
2016-Jun-18 20:33N 31°38' E 031°43'  
Track history (hours):
 
Tides and Currents Weather Stations Pressure Air Temp Water Temp Dewpoint Dewpoint Depression Visibility Wind Speed Wind Dir Waves Ship Positions

Amber Beverly

Last reported at 2016-Jun-28 20:08 UTC. Time now 2016-Jun-29 03:51 UTC.
Position N 34°19' E 021°20'.

Length 190 m; draft 7.6 m.

Type: Cargo ship. MMSI: 477317100.

Date/timePositionNaut miles runAvg speedWind from/ knotsBaromVisibWave heightAir tempDewpointWater temp
2016-Jun-28 20:08N 34°19' E 021°20'1112.7
2016-Jun-28 19:14N 34°16' E 021°33'913.0
2016-Jun-28 18:33N 34°14' E 021°44'51312.7
2016-Jun-27 02:18N 31°51' E 031°31'1112.8
2016-Jun-27 01:27N 31°45' E 031°42'1112.1
2016-Jun-27 00:33N 31°35' E 031°47'8 7.7
2016-Jun-26 23:30N 31°27' E 031°46'0 0.0
2016-Jun-26 19:27N 31°27' E 031°46'0 0.0
2016-Jun-26 16:15N 31°27' E 031°46'0 0.0
2016-Jun-26 15:33N 31°27' E 031°46'0 0.0
2016-Jun-26 14:03N 31°27' E 031°46'0 0.0
2016-Jun-26 13:30N 31°27' E 031°46'0 0.0
2016-Jun-26 04:12N 31°27' E 031°46'0 0.0
2016-Jun-25 23:15N 31°27' E 031°46'0 0.0
2016-Jun-25 11:27N 31°27' E 031°46'0 0.0
2016-Jun-25 10:24N 31°27' E 031°46'0 0.0
2016-Jun-24 22:33N 31°27' E 031°46'0 0.0
2016-Jun-24 21:33N 31°27' E 031°46'0 0.0
2016-Jun-24 20:33N 31°27' E 031°46'0 0.0
2016-Jun-24 09:09N 31°27' E 031°46'0 0.0
2016-Jun-23 13:15N 31°27' E 031°46'0 0.0
2016-Jun-23 12:30N 31°27' E 031°46'0 0.0
2016-Jun-23 11:33N 31°27' E 031°46'0 0.0
2016-Jun-23 10:33N 31°27' E 031°46'0 0.0
2016-Jun-23 09:33N 31°27' E 031°46'0 0.0
2016-Jun-23 05:06N 31°27' E 031°46'0 0.0
2016-Jun-22 13:33N 31°27' E 031°46'0 0.0
2016-Jun-22 12:33N 31°27' E 031°46'5 5.2
2016-Jun-22 11:33N 31°33' E 031°46'3 3.3
2016-Jun-22 10:33N 31°36' E 031°47'4 4.1
2016-Jun-22 09:33N 31°38' E 031°43'0 0.2
2016-Jun-22 08:24N 31°39' E 031°43'0 0.0
2016-Jun-22 07:33N 31°39' E 031°43'0 0.0
2016-Jun-22 06:33N 31°39' E 031°43'0 0.0
2016-Jun-22 05:33N 31°39' E 031°43'0 0.0
2016-Jun-22 04:33N 31°39' E 031°43'0 0.0
2016-Jun-22 02:27N 31°39' E 031°43'0 0.0
2016-Jun-21 21:33N 31°39' E 031°43'0 0.0
2016-Jun-21 20:33N 31°39' E 031°43'0 0.0
2016-Jun-21 19:31N 31°39' E 031°43'0 0.0
2016-Jun-21 18:31N 31°39' E 031°43'0 0.0
2016-Jun-21 17:31N 31°38' E 031°43'0 0.0
2016-Jun-21 16:31N 31°38' E 031°43'0 0.0
2016-Jun-21 15:31N 31°38' E 031°43'0 0.0
2016-Jun-21 14:31N 31°38' E 031°43'0 0.0
2016-Jun-21 13:31N 31°38' E 031°43'0 0.0
2016-Jun-21 12:31N 31°38' E 031°43'0 0.0
2016-Jun-21 11:32N 31°38' E 031°43'0 0.0
2016-Jun-21 10:32N 31°38' E 031°43'0 0.0
2016-Jun-21 09:33N 31°38' E 031°43'0 0.0
2016-Jun-21 08:33N 31°38' E 031°43'0 0.0
2016-Jun-21 07:33N 31°38' E 031°43'0 0.0
2016-Jun-21 06:33N 31°38' E 031°43'0 0.0
2016-Jun-20 23:21N 31°39' E 031°43'0 0.0
2016-Jun-20 21:33N 31°39' E 031°43'0 0.0
2016-Jun-20 20:33N 31°38' E 031°43'0 0.0
2016-Jun-20 19:33N 31°38' E 031°43'0 0.0
2016-Jun-20 18:33N 31°38' E 031°43'0 0.0
2016-Jun-20 17:33N 31°38' E 031°43'0 0.0
2016-Jun-20 16:33N 31°38' E 031°43'0 0.0
2016-Jun-20 13:18N 31°38' E 031°43'0 0.0
2016-Jun-20 09:33N 31°38' E 031°43'0 0.0
2016-Jun-20 08:33N 31°38' E 031°43'0 0.0
2016-Jun-19 10:18N 31°38' E 031°43'0 0.0
2016-Jun-19 09:33N 31°38' E 031°43'0 0.0
2016-Jun-19 08:31N 31°38' E 031°43'0 0.0
2016-Jun-18 22:31N 31°38' E 031°43'0 0.0
2016-Jun-18 21:28N 31°38' E 031°43'0 0.0
2016-Jun-18 20:33N 31°38' E 031°43'  

Dump ship's entire track history